Terminal Aerodrome Forecast
Issued by NWS

Home | Current Version | Previous Version | Text Only | Print | Product List | Glossary On
Versions: 1 2 3 4 5 6 7 8 9 10 11 12 13 14 15 16 17
152
FTUS46 KMTR 151140
TAFSTS
TAF
KSTS 151140Z 1512/1612 00000KT 3SM BR VV002
      TEMPO 1512/1515 1/4SM FG VV002
     FM151600 VRB04KT P6SM BKN200
     FM160200 34008KT P6SM SCT100 BKN180
     FM160500 35013G20KT P6SM FEW100 SCT180
     FM161000 35011G17KT P6SM FEW250=

USA.gov is the U.S. government's official web portal to all federal, state and local government web resources and services.